Time;durP1;ratioP1;P1;durP2;ratioP2;P2;SDS_P1;SDS_P2;PMS_P1;PMS_P2;Temp;Humidity;BMP_temperature;BMP_pressure;BME280_temperature;BME280_humidity;BME280_pressure;Samples;Min_cycle;Max_cycle;Signal;HPM_P1;HPM_P2
2023/01/16 00:00:22;;;;;;;3.92;2.85;;;4.90;99.90;;;;;;4904396;28;20052;-76
2023/01/16 00:02:47;;;;;;;6.05;2.97;;;4.90;99.90;;;;;;4921588;29;20055;-76
2023/01/16 00:05:13;;;;;;;4.22;3.65;;;4.90;99.90;;;;;;4938813;28;20062;-76
2023/01/16 00:07:38;;;;;;;4.95;2.90;;;4.90;99.90;;;;;;4938469;28;20047;-76
2023/01/16 00:10:05;;;;;;;5.35;3.47;;;4.90;99.90;;;;;;4927607;28;20048;-76
2023/01/16 00:12:30;;;;;;;3.58;2.38;;;4.90;99.90;;;;;;4926948;29;20048;-77
2023/01/16 00:14:56;;;;;;;3.28;2.08;;;5.00;99.90;;;;;;4926732;28;20052;-76
2023/01/16 00:17:22;;;;;;;8.73;3.00;;;5.00;99.90;;;;;;4916027;28;20047;-76
2023/01/16 00:19:47;;;;;;;3.60;3.30;;;4.90;99.90;;;;;;4908010;29;20129;-76
2023/01/16 00:22:13;;;;;;;2.92;2.58;;;5.00;99.90;;;;;;4922946;28;20049;-76
2023/01/16 00:24:38;;;;;;;7.10;3.42;;;4.90;99.90;;;;;;4907538;28;20653;-76
2023/01/16 00:27:04;;;;;;;3.92;2.67;;;5.00;99.90;;;;;;4913857;29;20406;-76
2023/01/16 00:29:30;;;;;;;5.05;3.75;;;4.90;99.90;;;;;;4927329;29;20056;-76
2023/01/16 00:31:55;;;;;;;3.83;3.05;;;4.90;99.90;;;;;;4926265;29;20411;-76
2023/01/16 00:34:21;;;;;;;6.28;2.30;;;4.90;99.90;;;;;;4926745;29;20044;-76
2023/01/16 00:36:46;;;;;;;4.63;3.80;;;4.90;99.90;;;;;;4926505;29;20094;-76
2023/01/16 00:39:12;;;;;;;2.97;2.60;;;4.90;99.90;;;;;;4927200;28;20040;-76
2023/01/16 00:41:38;;;;;;;5.72;3.63;;;5.00;99.90;;;;;;4926157;28;20131;-76
2023/01/16 00:44:03;;;;;;;4.88;3.30;;;5.00;99.90;;;;;;4927099;28;20090;-76
2023/01/16 00:46:29;;;;;;;5.78;3.65;;;5.00;99.90;;;;;;4925057;29;20039;-76
2023/01/16 00:48:56;;;;;;;4.00;2.70;;;5.00;99.90;;;;;;4926970;28;20953;-76
2023/01/16 00:51:21;;;;;;;5.28;3.83;;;5.00;99.90;;;;;;4926367;29;20086;-76
2023/01/16 00:53:47;;;;;;;5.10;4.50;;;5.00;99.90;;;;;;4926380;28;20083;-76
2023/01/16 00:56:13;;;;;;;5.88;3.38;;;5.00;99.90;;;;;;4926581;29;20509;-76
2023/01/16 00:58:39;;;;;;;9.52;4.13;;;5.00;99.90;;;;;;4926160;29;20066;-76
2023/01/16 01:01:05;;;;;;;4.78;3.65;;;5.00;99.90;;;;;;4925867;29;20166;-77
2023/01/16 01:03:31;;;;;;;4.65;3.50;;;5.00;99.90;;;;;;4926232;28;20082;-76
2023/01/16 01:05:57;;;;;;;6.57;5.78;;;5.00;99.90;;;;;;4926336;28;20090;-76
2023/01/16 01:08:23;;;;;;;13.80;5.47;;;5.00;99.90;;;;;;4941402;28;20449;-76
2023/01/16 01:10:48;;;;;;;6.75;5.40;;;5.00;99.90;;;;;;4925803;28;20127;-75
2023/01/16 01:13:14;;;;;;;7.85;4.75;;;5.00;99.90;;;;;;4926633;28;20094;-76
2023/01/16 01:15:39;;;;;;;10.82;4.93;;;5.00;99.90;;;;;;4925254;28;20043;-76
2023/01/16 01:18:05;;;;;;;15.80;5.22;;;5.00;99.90;;;;;;4908267;28;20430;-76
2023/01/16 01:20:31;;;;;;;6.75;5.05;;;5.00;99.90;;;;;;4907078;28;20118;-76
2023/01/16 01:22:57;;;;;;;6.45;4.28;;;5.00;99.90;;;;;;4921579;29;20047;-76
2023/01/16 01:25:23;;;;;;;7.47;4.80;;;5.00;99.90;;;;;;4907497;29;20475;-76
2023/01/16 01:27:49;;;;;;;5.85;4.63;;;5.00;99.90;;;;;;4918531;29;20087;-76
2023/01/16 01:30:14;;;;;;;10.32;5.78;;;5.00;99.90;;;;;;4924250;29;20043;-76
2023/01/16 01:32:40;;;;;;;8.68;5.65;;;5.00;99.90;;;;;;4925724;29;20040;-76
2023/01/16 01:35:06;;;;;;;7.32;4.78;;;5.00;99.90;;;;;;4925867;29;20052;-76
2023/01/16 01:37:33;;;;;;;8.38;5.03;;;5.00;99.90;;;;;;4926551;29;20058;-76
2023/01/16 01:39:59;;;;;;;4.88;4.43;;;5.00;99.90;;;;;;4911023;28;20048;-76
2023/01/16 01:42:42;;;;;;;13.02;6.53;;;5.00;99.90;;;;;;4905933;29;20052;-76
2023/01/16 01:45:13;;;;;;;5.47;4.72;;;5.00;99.90;;;;;;4906058;29;20098;-76
2023/01/16 01:47:43;;;;;;;7.65;5.47;;;4.90;99.90;;;;;;4921312;29;20044;-76
2023/01/16 01:50:50;;;;;;;5.03;3.70;;;4.90;99.90;;;;;;4906942;28;20564;-76
2023/01/16 01:53:25;;;;;;;4.82;3.60;;;4.90;99.90;;;;;;4890566;29;20064;-76
2023/01/16 01:55:51;;;;;;;5.22;3.80;;;4.90;99.90;;;;;;4906988;29;20051;-76
2023/01/16 01:58:22;;;;;;;6.68;5.43;;;4.90;99.90;;;;;;4906467;29;20040;-76
2023/01/16 02:00:52;;;;;;;5.25;3.83;;;4.90;99.90;;;;;;4919845;29;20059;-76
2023/01/16 02:03:27;;;;;;;6.45;4.35;;;4.90;99.90;;;;;;4905240;29;20055;-76
2023/01/16 02:05:57;;;;;;;5.72;3.97;;;4.90;99.90;;;;;;4907422;29;20044;-76
2023/01/16 02:08:28;;;;;;;12.50;4.30;;;4.80;99.90;;;;;;4907947;29;20052;-76
2023/01/16 02:11:02;;;;;;;4.75;3.40;;;4.80;99.90;;;;;;4923728;29;20051;-76
2023/01/16 02:13:28;;;;;;;3.75;3.45;;;4.80;99.90;;;;;;4925342;29;20324;-76
2023/01/16 02:21:58;;;;;;;5.93;3.90;;;4.80;99.90;;;;;;4925397;28;20137;-76
2023/01/16 02:24:37;;;;;;;8.43;4.35;;;4.80;99.90;;;;;;4924142;29;20059;-76
2023/01/16 02:27:18;;;;;;;5.70;4.93;;;4.80;99.90;;;;;;4912933;29;20051;-76
2023/01/16 02:30:08;;;;;;;8.93;5.63;;;4.80;99.90;;;;;;4923750;29;20285;-76
2023/01/16 02:33:01;;;;;;;7.07;4.20;;;4.70;99.90;;;;;;4922957;29;20040;-76
2023/01/16 02:35:59;;;;;;;5.93;4.57;;;4.80;99.90;;;;;;4939931;28;20044;-76
2023/01/16 02:39:02;;;;;;;5.82;4.07;;;4.70;99.90;;;;;;4923710;29;20304;-76
2023/01/16 02:41:41;;;;;;;;;;;4.80;99.90;;;;;;4924581;29;20445;-76
2023/01/16 02:44:32;;;;;;;4.40;3.22;;;4.70;99.90;;;;;;4924340;29;20278;-76
2023/01/16 02:47:36;;;;;;;9.38;3.28;;;4.70;99.90;;;;;;4923323;29;20508;-76
2023/01/16 02:50:11;;;;;;;4.15;3.15;;;4.60;99.90;;;;;;4925017;29;20051;-76
2023/01/16 02:52:53;;;;;;;12.50;4.45;;;4.70;99.90;;;;;;4923285;29;20063;-76
2023/01/16 02:55:33;;;;;;;6.93;4.32;;;4.60;99.90;;;;;;4924777;28;20621;-76
2023/01/16 02:58:06;;;;;;;6.32;4.40;;;4.60;99.90;;;;;;4924783;29;20067;-75
2023/01/16 03:00:33;;;;;;;7.47;3.70;;;4.60;99.90;;;;;;4924477;29;20048;-76
2023/01/16 03:02:59;;;;;;;6.43;3.75;;;4.60;99.90;;;;;;4924336;28;20051;-76
2023/01/16 03:05:31;;;;;;;4.78;3.72;;;4.50;99.90;;;;;;4925089;29;20474;-76
2023/01/16 03:08:27;;;;;;;11.02;3.25;;;4.50;99.90;;;;;;4924339;29;20043;-76
2023/01/16 03:11:22;;;;;;;9.25;4.55;;;4.40;99.90;;;;;;4895045;29;20067;-76
2023/01/16 03:13:51;;;;;;;5.90;3.10;;;4.40;99.90;;;;;;4905624;29;20044;-76
2023/01/16 03:16:35;;;;;;;7.68;3.70;;;4.40;99.90;;;;;;4903651;28;20044;-76
2023/01/16 03:19:25;;;;;;;4.78;3.20;;;4.30;99.90;;;;;;4906103;29;20056;-76
2023/01/16 03:22:00;;;;;;;6.93;3.00;;;4.20;99.90;;;;;;4905442;29;20094;-76
2023/01/16 03:24:46;;;;;;;4.38;3.38;;;4.20;99.90;;;;;;4905781;29;20938;-76
2023/01/16 03:27:34;;;;;;;7.30;4.78;;;4.10;99.90;;;;;;4911263;29;20091;-76
2023/01/16 03:30:20;;;;;;;4.18;3.72;;;4.10;99.90;;;;;;4923442;29;20418;-76
2023/01/16 03:32:53;;;;;;;5.07;2.72;;;4.00;99.90;;;;;;4924409;29;20093;-76
2023/01/16 03:35:46;;;;;;;4.55;3.13;;;4.00;99.90;;;;;;4924817;29;20040;-76
2023/01/16 03:38:14;;;;;;;9.63;4.20;;;4.00;99.90;;;;;;4938599;28;20445;-76
2023/01/16 03:40:43;;;;;;;7.05;4.25;;;4.00;99.90;;;;;;4924105;29;20137;-76
2023/01/16 03:43:36;;;;;;;6.68;4.30;;;4.10;99.90;;;;;;4924211;29;20046;-76
2023/01/16 03:46:11;;;;;;;;;;;4.10;99.90;;;;;;4923575;29;20418;-76
2023/01/16 03:48:49;;;;;;;5.70;4.72;;;4.10;99.90;;;;;;4909940;29;19930;-76
2023/01/16 03:51:29;;;;;;;5.20;3.58;;;4.20;99.90;;;;;;4905038;29;20142;-76
2023/01/16 03:54:27;;;;;;;6.93;4.55;;;4.20;99.90;;;;;;4915621;29;20109;-76
2023/01/16 03:56:57;;;;;;;8.82;4.10;;;4.20;99.90;;;;;;4922750;29;20055;-76
2023/01/16 03:59:23;;;;;;;9.60;6.28;;;4.30;99.90;;;;;;4923025;28;20490;-76
2023/01/16 04:02:00;;;;;;;7.20;5.15;;;4.30;99.90;;;;;;4923546;29;20051;-76
2023/01/16 04:04:46;;;;;;;7.80;6.05;;;4.30;99.90;;;;;;4924025;29;20402;-76
2023/01/16 04:07:21;;;;;;;6.05;4.95;;;4.30;99.90;;;;;;4917856;29;20098;-76
2023/01/16 04:09:57;;;;;;;8.27;5.47;;;4.30;99.90;;;;;;4904692;29;20135;-76
2023/01/16 04:12:33;;;;;;;13.25;5.72;;;4.40;99.90;;;;;;4905334;28;20048;-76
2023/01/16 04:15:02;;;;;;;10.68;6.22;;;4.40;99.90;;;;;;4903732;29;20048;-75
2023/01/16 04:17:29;;;;;;;14.35;5.55;;;4.40;99.90;;;;;;4904829;29;20098;-76
2023/01/16 04:19:56;;;;;;;9.90;6.88;;;4.40;99.90;;;;;;4887677;28;20106;-76
2023/01/16 04:22:27;;;;;;;8.60;6.40;;;4.50;99.90;;;;;;4903551;29;20051;-76
2023/01/16 04:24:55;;;;;;;11.85;6.82;;;4.50;99.90;;;;;;4904571;29;20609;-76
2023/01/16 04:27:22;;;;;;;7.85;5.97;;;4.50;99.90;;;;;;4904820;29;20543;-76
2023/01/16 04:29:48;;;;;;;9.75;6.68;;;4.50;99.90;;;;;;4903588;28;20047;-76
2023/01/16 04:32:14;;;;;;;12.60;8.13;;;4.50;99.90;;;;;;4904405;28;20052;-76
2023/01/16 04:34:39;;;;;;;13.43;6.22;;;4.60;99.90;;;;;;4904651;29;20037;-76
2023/01/16 04:37:05;;;;;;;12.23;7.30;;;4.60;99.90;;;;;;4904933;28;20036;-76
2023/01/16 04:39:31;;;;;;;10.00;7.20;;;4.60;99.90;;;;;;4921827;28;20044;-76
2023/01/16 04:41:57;;;;;;;11.07;7.68;;;4.60;99.90;;;;;;4923666;28;20411;-76
2023/01/16 04:44:23;;;;;;;11.32;9.02;;;4.60;99.90;;;;;;4910283;28;20075;-76
2023/01/16 04:46:49;;;;;;;11.60;7.78;;;4.60;99.90;;;;;;4904582;29;20044;-76
2023/01/16 04:49:14;;;;;;;12.68;7.10;;;4.60;99.90;;;;;;4904207;28;20115;-76
2023/01/16 04:51:40;;;;;;;17.27;7.40;;;4.60;99.90;;;;;;4904121;28;20052;-76
2023/01/16 04:54:07;;;;;;;10.20;7.72;;;4.60;99.90;;;;;;4904229;29;20060;-76
2023/01/16 04:56:33;;;;;;;14.07;9.55;;;4.60;99.90;;;;;;4907731;29;20056;-76
2023/01/16 04:58:59;;;;;;;12.93;8.40;;;4.60;99.90;;;;;;4906824;28;20457;-76
2023/01/16 05:01:25;;;;;;;9.52;7.50;;;4.60;99.90;;;;;;4907643;29;20048;-76
2023/01/16 05:03:51;;;;;;;10.43;7.72;;;4.70;99.90;;;;;;4907167;29;20504;-76
2023/01/16 05:06:16;;;;;;;15.15;10.13;;;4.70;99.90;;;;;;4907408;28;20044;-76
2023/01/16 05:08:42;;;;;;;13.60;8.20;;;4.60;99.90;;;;;;4925080;29;20059;-76
2023/01/16 05:11:08;;;;;;;12.45;7.47;;;4.60;99.90;;;;;;4926378;29;20044;-75
2023/01/16 05:13:33;;;;;;;20.48;11.25;;;4.60;99.90;;;;;;4926889;29;20051;-76
2023/01/16 05:15:59;;;;;;;17.13;10.98;;;4.60;99.90;;;;;;4925447;29;20105;-76
2023/01/16 05:18:26;;;;;;;14.10;9.05;;;4.60;99.90;;;;;;4926110;29;20984;-76
2023/01/16 05:20:52;;;;;;;14.93;8.35;;;4.60;99.90;;;;;;4926361;28;20453;-76
2023/01/16 05:23:17;;;;;;;14.68;11.10;;;4.60;99.90;;;;;;4926298;28;20086;-76
2023/01/16 05:25:43;;;;;;;18.90;8.50;;;4.60;99.90;;;;;;4924678;28;20093;-76
2023/01/16 05:28:09;;;;;;;16.65;8.23;;;4.60;99.90;;;;;;4912195;28;20091;-76
2023/01/16 05:30:35;;;;;;;15.65;9.98;;;4.60;99.90;;;;;;4906328;29;20055;-76
2023/01/16 05:33:02;;;;;;;12.50;7.80;;;4.50;99.90;;;;;;4907599;29;20048;-76
2023/01/16 05:35:27;;;;;;;13.95;9.18;;;4.50;99.90;;;;;;4906886;29;20119;-76
2023/01/16 05:37:53;;;;;;;9.85;7.35;;;4.50;99.90;;;;;;4918212;29;20518;-78
2023/01/16 05:40:19;;;;;;;15.07;9.98;;;4.50;99.90;;;;;;4926338;28;20056;-78
2023/01/16 05:42:47;;;;;;;16.02;9.85;;;4.50;99.90;;;;;;4939972;28;20075;-78
2023/01/16 05:45:13;;;;;;;21.95;9.07;;;4.50;99.90;;;;;;4925334;28;20048;-77
2023/01/16 05:47:39;;;;;;;9.00;6.40;;;4.50;99.90;;;;;;4924374;29;20074;-78
2023/01/16 05:50:05;;;;;;;14.25;7.78;;;4.50;99.90;;;;;;4925710;28;20047;-78
2023/01/16 05:52:31;;;;;;;16.58;9.60;;;4.40;99.90;;;;;;4909513;29;20051;-77
2023/01/16 05:54:56;;;;;;;12.98;10.00;;;4.40;99.90;;;;;;4925258;28;20162;-78
2023/01/16 05:57:23;;;;;;;15.05;7.95;;;4.40;99.90;;;;;;4926010;29;20055;-78
2023/01/16 05:59:52;;;;;;;14.00;8.95;;;4.40;99.90;;;;;;4924987;29;20101;-78
2023/01/16 06:02:19;;;;;;;13.98;8.38;;;4.40;99.90;;;;;;4925442;29;20127;-78
2023/01/16 06:04:45;;;;;;;10.43;9.00;;;4.40;99.90;;;;;;4925364;29;20486;-78
2023/01/16 06:07:12;;;;;;;16.42;10.02;;;4.40;99.90;;;;;;4920976;28;20047;-78
2023/01/16 06:09:38;;;;;;;14.48;10.20;;;4.40;99.90;;;;;;4907652;28;20387;-78
2023/01/16 06:12:04;;;;;;;13.73;9.32;;;4.40;99.90;;;;;;4907091;28;20044;-77
2023/01/16 06:14:29;;;;;;;18.13;12.95;;;4.40;99.90;;;;;;4905289;28;20048;-77
2023/01/16 06:16:55;;;;;;;19.92;13.18;;;4.40;99.90;;;;;;4906622;29;20063;-77
2023/01/16 06:19:20;;;;;;;15.07;11.30;;;4.40;99.90;;;;;;4912223;29;20075;-77
2023/01/16 06:21:49;;;;;;;20.73;10.98;;;4.40;99.90;;;;;;4917286;28;20078;-77
2023/01/16 06:24:14;;;;;;;15.43;10.05;;;4.40;99.90;;;;;;4920758;29;20135;-77
2023/01/16 06:26:40;;;;;;;24.27;12.40;;;4.50;99.90;;;;;;4927781;28;20118;-77
2023/01/16 06:29:06;;;;;;;14.90;10.15;;;4.40;99.90;;;;;;4912984;29;20099;-76
2023/01/16 06:31:31;;;;;;;13.43;9.45;;;4.40;99.90;;;;;;4912527;29;20040;-77
2023/01/16 06:33:57;;;;;;;11.30;9.40;;;4.40;99.90;;;;;;4925130;29;20048;-77
2023/01/16 06:36:22;;;;;;;12.88;8.68;;;4.40;99.90;;;;;;4925392;29;20051;-77
2023/01/16 06:38:48;;;;;;;22.05;10.80;;;4.40;99.90;;;;;;4910336;29;20128;-82
2023/01/16 06:41:13;;;;;;;13.80;10.10;;;4.40;99.90;;;;;;4924578;29;20048;-77
2023/01/16 06:43:39;;;;;;;19.33;7.93;;;4.40;99.90;;;;;;4914857;29;20044;-78
2023/01/16 06:46:05;;;;;;;16.95;10.10;;;4.40;99.90;;;;;;4918793;28;20544;-78
2023/01/16 06:48:31;;;;;;;17.35;10.82;;;4.40;99.90;;;;;;4914640;29;20063;-78
2023/01/16 06:50:58;;;;;;;18.55;10.45;;;4.30;99.90;;;;;;4924097;29;20058;-78
2023/01/16 06:53:24;;;;;;;14.13;10.43;;;4.30;99.90;;;;;;4938372;28;20410;-77
2023/01/16 06:55:50;;;;;;;12.93;9.15;;;4.30;99.90;;;;;;4924638;29;20055;-78
2023/01/16 06:58:15;;;;;;;14.95;9.55;;;4.30;99.90;;;;;;4912149;28;20076;-78
2023/01/16 07:00:41;;;;;;;17.63;9.65;;;4.30;99.90;;;;;;4904321;28;20036;-79
2023/01/16 07:03:06;;;;;;;15.65;10.88;;;4.30;99.90;;;;;;4915452;29;20486;-82
2023/01/16 07:05:32;;;;;;;14.95;8.95;;;4.20;99.90;;;;;;4907696;29;20442;-79
2023/01/16 07:07:58;;;;;;;11.25;7.63;;;4.20;99.90;;;;;;4913424;28;20173;-78
2023/01/16 07:10:24;;;;;;;17.48;10.57;;;4.20;99.90;;;;;;4911400;29;20051;-79
2023/01/16 07:12:51;;;;;;;15.15;8.57;;;4.20;99.90;;;;;;4914628;28;20040;-77
2023/01/16 07:23:40;;;;;;;15.38;9.32;;;4.20;99.90;;;;;;4904801;29;20059;-78
2023/01/16 07:26:07;;;;;;;12.18;8.65;;;4.30;99.90;;;;;;4918170;29;20232;-76
2023/01/16 07:28:33;;;;;;;11.25;7.00;;;4.30;99.90;;;;;;4925276;28;20038;-77
2023/01/16 07:31:02;;;;;;;8.93;7.25;;;4.30;99.90;;;;;;4912504;28;20549;-78
2023/01/16 07:33:29;;;;;;;12.70;7.25;;;4.30;99.90;;;;;;4905438;29;20040;-77
2023/01/16 07:35:54;;;;;;;24.45;8.40;;;4.30;99.90;;;;;;4905118;29;20098;-77
2023/01/16 07:38:20;;;;;;;13.75;5.68;;;4.30;99.90;;;;;;4915943;29;20060;-78
2023/01/16 07:40:45;;;;;;;13.40;7.18;;;4.30;99.90;;;;;;4908647;28;20285;-77
2023/01/16 07:43:11;;;;;;;12.02;8.43;;;4.20;99.90;;;;;;4926665;28;20040;-77
2023/01/16 07:45:37;;;;;;;12.02;7.57;;;4.20;99.90;;;;;;4922512;28;20079;-78
2023/01/16 07:48:02;;;;;;;9.93;5.40;;;4.20;99.90;;;;;;4918356;28;20048;-77
2023/01/16 07:50:28;;;;;;;8.85;6.45;;;4.20;99.90;;;;;;4904392;29;20055;-78
2023/01/16 07:52:54;;;;;;;9.25;6.32;;;4.20;99.90;;;;;;4905233;28;20372;-77
2023/01/16 07:55:19;;;;;;;10.93;6.43;;;4.20;99.90;;;;;;4905593;29;20458;-78
2023/01/16 07:57:45;;;;;;;8.50;5.25;;;4.20;99.90;;;;;;4918851;29;20261;-77
2023/01/16 08:00:12;;;;;;;20.40;6.47;;;4.20;99.90;;;;;;4903966;28;20074;-78
2023/01/16 08:02:38;;;;;;;13.90;6.07;;;4.20;99.90;;;;;;4909886;29;20046;-76
2023/01/16 08:05:05;;;;;;;11.13;5.18;;;4.20;99.90;;;;;;4915407;28;20445;-77
2023/01/16 08:07:30;;;;;;;6.47;4.05;;;4.20;99.90;;;;;;4909542;29;20070;-78
2023/01/16 08:09:56;;;;;;;9.00;5.38;;;4.20;99.90;;;;;;4914492;28;20052;-78
2023/01/16 08:12:21;;;;;;;5.25;3.38;;;4.20;99.90;;;;;;4903413;29;20044;-77
2023/01/16 08:14:47;;;;;;;11.10;4.50;;;4.20;99.90;;;;;;4903348;28;20501;-78
2023/01/16 08:17:13;;;;;;;8.20;4.22;;;4.20;99.90;;;;;;4995837;28;20044;-76
2023/01/16 08:19:38;;;;;;;6.82;3.63;;;4.20;99.90;;;;;;4923462;28;20512;-78
2023/01/16 08:22:04;;;;;;;6.95;4.97;;;4.20;99.90;;;;;;4922752;28;20047;-78
2023/01/16 08:24:30;;;;;;;6.80;4.13;;;4.20;99.90;;;;;;4937650;28;20478;-77
2023/01/16 08:26:56;;;;;;;4.30;3.20;;;4.20;99.90;;;;;;4918134;29;20257;-79
2023/01/16 08:29:22;;;;;;;6.85;3.25;;;4.20;99.90;;;;;;4902489;29;20044;-77
2023/01/16 08:31:48;;;;;;;4.10;3.70;;;4.20;99.90;;;;;;4906746;29;20418;-78
2023/01/16 08:34:13;;;;;;;7.72;4.45;;;4.20;99.90;;;;;;4907334;28;20037;-76
2023/01/16 08:36:39;;;;;;;13.57;3.95;;;4.20;99.90;;;;;;4917268;29;20183;-80
2023/01/16 08:39:05;;;;;;;11.20;3.88;;;4.20;99.90;;;;;;4919523;29;20519;-80
2023/01/16 08:52:33;;;;;;;5.47;3.00;;;4.30;99.90;;;;;;4923204;29;20055;-76
2023/01/16 08:54:59;;;;;;;6.88;3.72;;;4.30;99.90;;;;;;4921399;28;20056;-77
2023/01/16 08:57:27;;;;;;;4.35;2.75;;;4.30;99.90;;;;;;4923928;28;20040;-78
2023/01/16 08:59:53;;;;;;;11.77;3.97;;;4.30;99.90;;;;;;4921225;28;20058;-76
2023/01/16 09:02:19;;;;;;;6.47;3.58;;;4.40;99.90;;;;;;4917850;28;20047;-77
2023/01/16 09:04:46;;;;;;;5.18;2.80;;;4.40;99.90;;;;;;4914427;28;20052;-75
2023/01/16 09:07:11;;;;;;;5.82;3.40;;;4.40;99.90;;;;;;4911622;29;20047;-75
2023/01/16 09:09:37;;;;;;;6.65;3.85;;;4.40;99.90;;;;;;4924210;29;20058;-76
2023/01/16 09:14:47;;;;;;;6.68;4.13;;;4.40;99.90;;;;;;4913449;28;20581;-76
2023/01/16 09:17:13;;;;;;;5.25;4.80;;;4.40;99.90;;;;;;4906638;28;20084;-76
2023/01/16 09:19:38;;;;;;;8.07;3.85;;;4.40;99.90;;;;;;4923674;29;20438;-75
2023/01/16 09:22:07;;;;;;;5.78;4.05;;;4.40;99.90;;;;;;4924797;29;20171;-76
2023/01/16 09:24:34;;;;;;;16.88;4.38;;;4.50;99.90;;;;;;4924942;29;20048;-76
2023/01/16 09:27:01;;;;;;;7.28;5.00;;;4.50;99.90;;;;;;4922030;28;20047;-76
2023/01/16 09:29:27;;;;;;;8.27;5.30;;;4.50;99.90;;;;;;4906606;29;20166;-76
2023/01/16 09:31:53;;;;;;;9.60;6.30;;;4.50;99.90;;;;;;4905922;29;20123;-76
2023/01/16 09:34:19;;;;;;;18.00;4.60;;;4.50;99.90;;;;;;4913320;28;20166;-75
2023/01/16 09:36:44;;;;;;;4.93;3.72;;;4.50;99.90;;;;;;4929060;28;20131;-76
2023/01/16 09:39:10;;;;;;;7.03;3.67;;;4.50;99.90;;;;;;4906977;29;20036;-76
2023/01/16 09:44:38;;;;;;;7.75;3.85;;;4.50;99.90;;;;;;4921588;28;20098;-76
2023/01/16 09:47:04;;;;;;;7.28;4.60;;;4.50;99.90;;;;;;4923806;29;20122;-76
2023/01/16 09:49:44;;;;;;;7.45;3.92;;;4.60;99.90;;;;;;4906829;29;20059;-76
2023/01/16 10:00:37;;;;;;;5.70;4.50;;;4.60;99.90;;;;;;4923062;28;20178;-76
2023/01/16 10:03:03;;;;;;;4.05;3.65;;;4.60;99.90;;;;;;4923510;28;20051;-77
2023/01/16 10:05:38;;;;;;;5.72;3.60;;;4.60;99.90;;;;;;4911087;29;20071;-76
2023/01/16 10:08:08;;;;;;;8.50;4.40;;;4.60;99.90;;;;;;4910757;28;20067;-79
2023/01/16 10:11:06;;;;;;;6.45;3.58;;;4.60;99.90;;;;;;4924130;28;20688;-80
2023/01/16 10:13:31;;;;;;;6.35;4.15;;;4.60;99.90;;;;;;4914486;29;20044;-79
2023/01/16 10:16:42;;;;;;;4.40;4.00;;;4.60;99.90;;;;;;4914067;28;20051;-80
2023/01/16 10:19:43;;;;;;;5.50;3.90;;;4.60;99.90;;;;;;4917207;29;20044;-80
2023/01/16 10:22:26;;;;;;;5.57;3.80;;;4.60;99.90;;;;;;4919450;29;20056;-80
2023/01/16 10:25:16;;;;;;;8.63;4.07;;;4.60;99.90;;;;;;4921374;28;20059;-80
2023/01/16 10:28:09;;;;;;;4.05;3.38;;;4.60;99.90;;;;;;4916237;29;20080;-80
2023/01/16 10:30:44;;;;;;;4.57;3.78;;;4.60;99.90;;;;;;4922976;29;20673;-79
2023/01/16 10:33:09;;;;;;;5.63;3.75;;;4.60;99.90;;;;;;4920840;28;20043;-79
2023/01/16 10:35:47;;;;;;;6.30;3.45;;;4.60;99.90;;;;;;4909247;28;20053;-81
2023/01/16 10:50:05;;;;;;;4.20;3.40;;;4.60;99.90;;;;;;4974984;28;20334;-77
2023/01/16 10:52:32;;;;;;;5.38;3.03;;;4.50;99.90;;;;;;4926068;28;20748;-78
2023/01/16 10:54:59;;;;;;;2.38;2.10;;;4.50;99.90;;;;;;4937932;29;20403;-78
2023/01/16 10:57:25;;;;;;;3.72;3.28;;;4.50;99.90;;;;;;4921354;28;20043;-78
2023/01/16 10:59:55;;;;;;;2.90;2.03;;;4.50;99.90;;;;;;4904171;28;20136;-77
2023/01/16 11:02:29;;;;;;;6.20;2.78;;;4.50;99.90;;;;;;4905404;29;20134;-78
2023/01/16 11:04:54;;;;;;;2.85;2.35;;;4.50;99.90;;;;;;4919591;28;20052;-78
2023/01/16 11:07:21;;;;;;;2.20;1.98;;;4.40;99.90;;;;;;4924269;28;20047;-78
2023/01/16 11:09:47;;;;;;;1.63;1.40;;;4.40;99.90;;;;;;4906490;28;20263;-78
2023/01/16 11:18:31;;;;;;;1.60;1.50;;;4.40;99.90;;;;;;4924139;28;20051;-79
2023/01/16 11:21:14;;;;;;;1.90;1.67;;;4.30;99.90;;;;;;4930046;28;20263;-80
2023/01/16 11:23:44;;;;;;;5.03;1.75;;;4.30;99.90;;;;;;4922724;29;20103;-78
2023/01/16 11:26:11;;;;;;;2.42;1.88;;;4.30;99.90;;;;;;4924319;29;20085;-78
2023/01/16 11:28:37;;;;;;;3.72;2.42;;;4.20;99.90;;;;;;4904737;29;20083;-78
2023/01/16 11:31:25;;;;;;;2.40;1.40;;;4.30;99.90;;;;;;4908248;29;20107;-77
2023/01/16 11:34:00;;;;;;;2.22;1.85;;;4.20;99.90;;;;;;4906014;28;20063;-77
2023/01/16 11:36:29;;;;;;;2.33;1.85;;;4.20;99.90;;;;;;4923826;29;20122;-77
2023/01/16 11:38:55;;;;;;;1.90;1.58;;;4.20;99.90;;;;;;4923523;29;20953;-78
2023/01/16 11:41:32;;;;;;;1.90;1.15;;;4.20;99.90;;;;;;4918841;29;20047;-78
2023/01/16 11:46:59;;;;;;;1.73;1.52;;;4.20;99.90;;;;;;4923828;29;20059;-78
2023/01/16 11:49:35;;;;;;;1.70;1.55;;;4.20;99.90;;;;;;4917644;29;20566;-78
2023/01/16 11:52:03;;;;;;;1.73;1.63;;;4.20;99.90;;;;;;4917577;29;20059;-78
2023/01/16 11:54:31;;;;;;;1.15;0.95;;;4.20;99.90;;;;;;4923122;28;20143;-78
2023/01/16 11:57:08;;;;;;;2.90;2.17;;;4.20;99.90;;;;;;4911825;29;20046;-77
2023/01/16 11:59:45;;;;;;;1.85;1.10;;;4.20;99.90;;;;;;4906097;29;20044;-77
2023/01/16 12:02:43;;;;;;;1.33;1.23;;;4.20;99.90;;;;;;4927135;28;20056;-77
2023/01/16 12:08:12;;;;;;;1.73;1.63;;;4.20;99.90;;;;;;4925149;29;20135;-77
2023/01/16 12:10:51;;;;;;;1.75;0.82;;;4.10;99.90;;;;;;4926455;29;20067;-77
2023/01/16 12:16:18;;;;;;;1.05;1.02;;;4.10;99.90;;;;;;4906226;28;20056;-77
2023/01/16 12:19:13;;;;;;;1.30;1.15;;;4.10;99.90;;;;;;4923371;29;20043;-77
2023/01/16 12:21:56;;;;;;;2.25;1.48;;;4.20;99.90;;;;;;4923830;29;20158;-81
2023/01/16 12:24:40;;;;;;;0.90;0.80;;;4.10;99.90;;;;;;4924929;29;20054;-77
2023/01/16 12:27:22;;;;;;;1.60;1.35;;;4.10;99.90;;;;;;5009073;28;20532;-77
2023/01/16 12:30:05;;;;;;;2.38;1.52;;;4.10;99.90;;;;;;4918643;29;20127;-78
2023/01/16 12:32:42;;;;;;;;;;;4.10;99.90;;;;;;4927371;28;20057;-76
2023/01/16 12:35:26;;;;;;;1.55;1.02;;;4.10;99.90;;;;;;4924175;28;20316;-84
2023/01/16 12:38:11;;;;;;;1.85;1.33;;;4.10;99.90;;;;;;4906624;29;20059;-78
2023/01/16 12:40:48;;;;;;;1.50;1.40;;;4.10;99.90;;;;;;4908397;29;20051;-79
2023/01/16 12:43:38;;;;;;;1.17;1.10;;;4.10;99.90;;;;;;4924638;29;20047;-81
2023/01/16 12:46:21;;;;;;;1.13;1.02;;;4.10;99.90;;;;;;4925874;29;20036;-80
2023/01/16 12:49:07;;;;;;;2.47;1.77;;;4.10;99.90;;;;;;4914043;28;20536;-78
2023/01/16 12:51:59;;;;;;;2.28;2.08;;;4.10;99.90;;;;;;4907872;28;20433;-79
2023/01/16 12:54:35;;;;;;;1.60;1.50;;;4.10;99.90;;;;;;4906605;28;20056;-80
2023/01/16 12:57:22;;;;;;;1.63;1.52;;;4.20;99.90;;;;;;4907292;28;20084;-79
2023/01/16 12:59:54;;;;;;;5.40;2.42;;;4.10;99.90;;;;;;4922519;28;20047;-78
2023/01/16 13:02:36;;;;;;;2.13;1.92;;;4.20;99.90;;;;;;4910950;29;20556;-80
2023/01/16 13:05:18;;;;;;;1.42;1.33;;;4.10;99.90;;;;;;4889738;29;20056;-81
2023/01/16 13:07:52;;;;;;;4.38;2.38;;;4.20;99.90;;;;;;4913489;28;20063;-83
2023/01/16 13:13:24;;;;;;;3.83;2.45;;;4.20;99.90;;;;;;4913224;29;20055;-81
2023/01/16 13:16:33;;;;;;;4.13;2.80;;;4.20;99.90;;;;;;4920964;29;20043;-80
2023/01/16 13:19:14;;;;;;;1.83;1.73;;;4.20;99.90;;;;;;4912781;28;20052;-79
2023/01/16 13:21:55;;;;;;;5.13;3.83;;;4.20;99.90;;;;;;4908029;28;20095;-78
2023/01/16 13:24:54;;;;;;;4.20;3.50;;;4.30;99.90;;;;;;4919608;29;20064;-76
2023/01/16 13:27:37;;;;;;;4.30;3.17;;;4.30;99.90;;;;;;4916711;28;20110;-77
2023/01/16 13:30:08;;;;;;;2.50;2.30;;;4.30;99.90;;;;;;4941516;28;20059;-76
2023/01/16 13:32:40;;;;;;;2.70;2.50;;;4.30;99.90;;;;;;4934903;28;20036;-77
2023/01/16 13:35:16;;;;;;;6.07;3.40;;;4.40;99.90;;;;;;4911634;29;20051;-79
2023/01/16 13:37:54;;;;;;;2.63;2.38;;;4.30;99.90;;;;;;4915387;28;20183;-78
2023/01/16 13:40:47;;;;;;;2.75;2.50;;;4.40;99.90;;;;;;4917793;29;20105;-77
2023/01/16 13:46:13;;;;;;;4.05;2.67;;;4.40;99.90;;;;;;4921282;29;20048;-77
2023/01/16 13:48:39;;;;;;;3.63;2.85;;;4.40;99.90;;;;;;4908187;29;20048;-78
2023/01/16 13:51:16;;;;;;;3.42;2.63;;;4.40;99.90;;;;;;4920233;29;20078;-77
2023/01/16 13:53:46;;;;;;;3.60;3.10;;;4.50;99.90;;;;;;4922730;28;20051;-79
2023/01/16 13:56:20;;;;;;;5.57;3.60;;;4.50;99.90;;;;;;4912805;28;20570;-79
2023/01/16 13:58:53;;;;;;;4.20;3.72;;;4.50;99.90;;;;;;4912878;29;20035;-79
2023/01/16 14:01:43;;;;;;;4.85;3.50;;;4.50;99.90;;;;;;4915239;28;20048;-79
2023/01/16 14:04:27;;;;;;;5.03;4.38;;;4.50;99.90;;;;;;4931467;28;20043;-79
2023/01/16 14:10:15;;;;;;;3.72;3.30;;;4.50;99.90;;;;;;4909080;29;20075;-76
2023/01/16 14:13:14;;;;;;;3.30;2.55;;;4.50;99.90;;;;;;4922312;28;20063;-76
2023/01/16 14:18:40;;;;;;;3.85;2.55;;;4.50;99.90;;;;;;5006665;28;20055;-77
2023/01/16 14:21:21;;;;;;;2.40;2.20;;;4.50;99.90;;;;;;4928900;28;20078;-77
2023/01/16 14:24:02;;;;;;;3.13;2.83;;;4.50;99.90;;;;;;4921379;28;20062;-78
2023/01/16 14:26:33;;;;;;;2.38;1.98;;;4.50;99.90;;;;;;4912900;29;20131;-76
2023/01/16 14:29:03;;;;;;;2.42;1.95;;;4.40;99.90;;;;;;4913093;28;20047;-78
2023/01/16 14:31:39;;;;;;;3.17;1.90;;;4.40;99.90;;;;;;4917887;29;20231;-78
2023/01/16 14:34:05;;;;;;;4.05;2.65;;;4.40;99.90;;;;;;4928375;29;20524;-77